PWSweather.com
Personal Weather Stations
Station Observations
KVAGLENALL
West Henrico, Glen Allen, VA 23060-6503

West HenricoGlen Allen, VA 23060-6503

Lat: 37.6554, Lon: -77.5693

Elevation: 273

Station Type: Davis Vantage Pro II

www.glenallenweather.com

High Low Average
Temperature 86.3°F30.2°C 63.2°F17.3°C 75.1°F23.9°C
Dew Point 70.1°F21.2°C 62.1°F16.7°C 66.4°F19.1°C
Winds 7.0 mph 11.3 kmh Calm Calm 2.0 mph SSW3.2 kmh SSW
Wind Gusts 11.1 mph17.9 kmh -- 4.0 mph6.4 kmh
Humidity 97% 52% 76%
Pressure 29.83 in1010.2 mb 29.73 in1006.8 mb -
Precipitation 0.00 in0.0 mm - -
Hour Temp Dew Point Humidity Winds Wind Gusts Pressure Precip Precip Rate Daily Precip Total
12:00 AM 66.9°F19.4°C 64.9°F18.3°C 93% Calm Calm 2.0 mph3.2 kmh 29.83 in1010.2 mb 0.00 in0.0 mm 0.00 in0.0 mm 0.00 in0.0 mm
01:00 AM 66.6°F19.2°C 64.9°F18.3°C 94% 1.0 mph S1.6 kmh S 3.0 mph4.8 kmh 29.83 in1010.2 mb 0.00 in0.0 mm 0.00 in0.0 mm 0.00 in0.0 mm
02:00 AM 66.1°F18.9°C 64.4°F18.0°C 94% Calm Calm -- 29.81 in1009.5 mb 0.00 in0.0 mm 0.00 in0.0 mm 0.00 in0.0 mm
03:00 AM 65.1°F18.4°C 63.7°F17.6°C 95% 1.0 mph S1.6 kmh S 2.0 mph3.2 kmh 29.80 in1009.1 mb 0.00 in0.0 mm 0.00 in0.0 mm 0.00 in0.0 mm
04:00 AM 64.4°F18.0°C 63.3°F17.4°C 96% Calm Calm -- 29.79 in1008.8 mb 0.00 in0.0 mm 0.00 in0.0 mm 0.00 in0.0 mm
05:00 AM 63.4°F17.4°C 62.3°F16.8°C 96% Calm Calm -- 29.78 in1008.5 mb 0.00 in0.0 mm 0.00 in0.0 mm 0.00 in0.0 mm
06:00 AM 63.2°F17.3°C 62.1°F16.7°C 96% Calm Calm 2.0 mph3.2 kmh 29.79 in1008.8 mb 0.00 in0.0 mm 0.00 in0.0 mm 0.00 in0.0 mm
07:00 AM 64.1°F17.8°C 63.3°F17.4°C 97% Calm Calm -- 29.80 in1009.1 mb 0.00 in0.0 mm 0.00 in0.0 mm 0.00 in0.0 mm
08:00 AM 67.6°F19.8°C 64.6°F18.1°C 90% 4.0 mph WSW6.4 kmh WSW 5.1 mph8.2 kmh 29.80 in1009.1 mb 0.00 in0.0 mm 0.00 in0.0 mm 0.00 in0.0 mm
09:00 AM 73.9°F23.3°C 67.0°F19.4°C 79% Calm Calm 6.1 mph9.8 kmh 29.81 in1009.5 mb 0.00 in0.0 mm 0.00 in0.0 mm 0.00 in0.0 mm
10:00 AM 78.0°F25.6°C 68.6°F20.3°C 73% 1.0 mph SSW1.6 kmh SSW 3.0 mph4.8 kmh 29.82 in1009.8 mb 0.00 in0.0 mm 0.00 in0.0 mm 0.00 in0.0 mm
11:00 AM 81.7°F27.6°C 70.1°F21.2°C 68% 3.0 mph SW4.8 kmh SW 4.0 mph6.4 kmh 29.82 in1009.8 mb 0.00 in0.0 mm 0.00 in0.0 mm 0.00 in0.0 mm
12:00 PM 82.7°F28.2°C 68.4°F20.2°C 62% 4.0 mph SW6.4 kmh SW 4.0 mph6.4 kmh 29.80 in1009.1 mb 0.00 in0.0 mm 0.00 in0.0 mm 0.00 in0.0 mm
01:00 PM 84.8°F29.3°C 68.9°F20.5°C 59% 7.0 mph S11.3 kmh S 7.1 mph11.4 kmh 29.80 in1009.1 mb 0.00 in0.0 mm 0.00 in0.0 mm 0.00 in0.0 mm
02:00 PM 86.1°F30.1°C 67.6°F19.8°C 54% 2.0 mph N3.2 kmh N 4.0 mph6.4 kmh 29.78 in1008.5 mb 0.00 in0.0 mm 0.00 in0.0 mm 0.00 in0.0 mm
03:00 PM 86.0°F30.0°C 68.0°F20.0°C 55% 4.0 mph SSW6.4 kmh SSW 7.1 mph11.4 kmh 29.75 in1007.5 mb 0.00 in0.0 mm 0.00 in0.0 mm 0.00 in0.0 mm
04:00 PM 86.3°F30.2°C 66.7°F19.3°C 52% 4.0 mph SW6.4 kmh SW 11.1 mph17.9 kmh 29.73 in1006.8 mb 0.00 in0.0 mm 0.00 in0.0 mm 0.00 in0.0 mm
05:00 PM 84.6°F29.2°C 67.7°F19.8°C 57% 5.0 mph SSW8.0 kmh SSW 9.1 mph14.6 kmh 29.73 in1006.8 mb 0.00 in0.0 mm 0.00 in0.0 mm 0.00 in0.0 mm
06:00 PM 82.5°F28.1°C 67.7°F19.8°C 61% Calm Calm 8.1 mph13.0 kmh 29.74 in1007.1 mb 0.00 in0.0 mm 0.00 in0.0 mm 0.00 in0.0 mm
07:00 PM 81.5°F27.5°C 67.7°F19.8°C 63% 2.0 mph SSW3.2 kmh SSW 5.1 mph8.2 kmh 29.73 in1006.8 mb 0.00 in0.0 mm 0.00 in0.0 mm 0.00 in0.0 mm
08:00 PM 79.5°F26.4°C 67.2°F19.6°C 66% 7.0 mph SSW11.3 kmh SSW 7.1 mph11.4 kmh 29.74 in1007.1 mb 0.00 in0.0 mm 0.00 in0.0 mm 0.00 in0.0 mm
09:00 PM 77.5°F25.3°C 67.4°F19.7°C 71% 1.0 mph SSW1.6 kmh SSW 2.0 mph3.2 kmh 29.76 in1007.8 mb 0.00 in0.0 mm 0.00 in0.0 mm 0.00 in0.0 mm
10:00 PM 76.1°F24.5°C 69.1°F20.6°C 79% Calm Calm -- 29.77 in1008.1 mb 0.01 in0.3 mm 0.00 in0.0 mm 0.01 in0.3 mm
11:00 PM 71.7°F22.1°C 67.9°F19.9°C 88% Calm Calm 1.0 mph1.6 kmh 29.79 in1008.8 mb 0.01 in0.3 mm 0.00 in0.0 mm 0.01 in0.3 mm